sensor_id;sensor_type;location;lat;lon;timestamp;P1;durP1;ratioP1;P2;durP2;ratioP2
34296;SDS011;20564;42.902;25.336;2023-03-15T00:01:15;1.20;;;0.45;;
34296;SDS011;20564;42.902;25.336;2023-03-15T00:04:13;2.22;;;0.57;;
34296;SDS011;20564;42.902;25.336;2023-03-15T00:06:59;3.40;;;0.60;;
34296;SDS011;20564;42.902;25.336;2023-03-15T00:12:23;3.95;;;0.50;;
34296;SDS011;20564;42.902;25.336;2023-03-15T00:14:56;1.85;;;0.40;;
34296;SDS011;20564;42.902;25.336;2023-03-15T00:17:30;3.15;;;0.77;;
34296;SDS011;20564;42.902;25.336;2023-03-15T00:20:10;1.13;;;0.63;;
34296;SDS011;20564;42.902;25.336;2023-03-15T00:22:58;1.67;;;0.52;;
34296;SDS011;20564;42.902;25.336;2023-03-15T00:25:29;4.20;;;1.30;;
34296;SDS011;20564;42.902;25.336;2023-03-15T00:28:10;3.15;;;1.02;;
34296;SDS011;20564;42.902;25.336;2023-03-15T00:34:15;2.75;;;1.02;;
34296;SDS011;20564;42.902;25.336;2023-03-15T00:37:31;1.73;;;0.50;;
34296;SDS011;20564;42.902;25.336;2023-03-15T00:40:09;2.67;;;0.95;;
34296;SDS011;20564;42.902;25.336;2023-03-15T00:42:43;7.53;;;1.48;;
34296;SDS011;20564;42.902;25.336;2023-03-15T00:45:17;2.78;;;0.65;;
34296;SDS011;20564;42.902;25.336;2023-03-15T00:48:27;2.83;;;0.50;;
34296;SDS011;20564;42.902;25.336;2023-03-15T00:51:11;2.55;;;0.73;;
34296;SDS011;20564;42.902;25.336;2023-03-15T00:53:55;2.05;;;0.75;;
34296;SDS011;20564;42.902;25.336;2023-03-15T00:56:35;3.67;;;1.25;;
34296;SDS011;20564;42.902;25.336;2023-03-15T00:59:31;4.28;;;0.98;;
34296;SDS011;20564;42.902;25.336;2023-03-15T01:02:02;3.17;;;0.70;;
34296;SDS011;20564;42.902;25.336;2023-03-15T01:04:36;4.50;;;0.98;;
34296;SDS011;20564;42.902;25.336;2023-03-15T01:11:08;3.88;;;1.10;;
34296;SDS011;20564;42.902;25.336;2023-03-15T01:13:57;3.25;;;0.85;;
34296;SDS011;20564;42.902;25.336;2023-03-15T01:16:56;5.18;;;1.23;;
34296;SDS011;20564;42.902;25.336;2023-03-15T01:19:28;3.53;;;0.73;;
34296;SDS011;20564;42.902;25.336;2023-03-15T01:22:04;4.68;;;1.00;;
34296;SDS011;20564;42.902;25.336;2023-03-15T01:24:43;3.17;;;1.30;;
34296;SDS011;20564;42.902;25.336;2023-03-15T01:27:24;6.10;;;1.23;;
34296;SDS011;20564;42.902;25.336;2023-03-15T01:30:37;1.50;;;0.70;;
34296;SDS011;20564;42.902;25.336;2023-03-15T01:34:11;3.00;;;0.57;;
34296;SDS011;20564;42.902;25.336;2023-03-15T01:36:44;1.90;;;0.70;;
34296;SDS011;20564;42.902;25.336;2023-03-15T01:39:39;4.32;;;0.90;;
34296;SDS011;20564;42.902;25.336;2023-03-15T01:42:16;4.20;;;1.83;;
34296;SDS011;20564;42.902;25.336;2023-03-15T01:48:40;3.33;;;0.70;;
34296;SDS011;20564;42.902;25.336;2023-03-15T01:51:29;4.85;;;0.88;;
34296;SDS011;20564;42.902;25.336;2023-03-15T01:58:12;2.40;;;0.80;;
34296;SDS011;20564;42.902;25.336;2023-03-15T02:06:46;1.85;;;0.52;;
34296;SDS011;20564;42.902;25.336;2023-03-15T02:13:25;4.35;;;0.88;;
34296;SDS011;20564;42.902;25.336;2023-03-15T02:16:18;4.22;;;0.88;;
34296;SDS011;20564;42.902;25.336;2023-03-15T02:19:34;5.63;;;1.25;;
34296;SDS011;20564;42.902;25.336;2023-03-15T02:22:55;2.88;;;1.00;;
34296;SDS011;20564;42.902;25.336;2023-03-15T02:29:22;2.22;;;0.70;;
34296;SDS011;20564;42.902;25.336;2023-03-15T02:32:22;2.40;;;1.30;;
34296;SDS011;20564;42.902;25.336;2023-03-15T02:35:10;2.97;;;1.40;;
34296;SDS011;20564;42.902;25.336;2023-03-15T02:37:47;1.70;;;0.50;;
34296;SDS011;20564;42.902;25.336;2023-03-15T02:40:48;4.05;;;1.17;;
34296;SDS011;20564;42.902;25.336;2023-03-15T02:43:26;2.55;;;0.95;;
34296;SDS011;20564;42.902;25.336;2023-03-15T02:46:09;4.22;;;0.90;;
34296;SDS011;20564;42.902;25.336;2023-03-15T02:49:01;3.22;;;1.10;;
34296;SDS011;20564;42.902;25.336;2023-03-15T02:51:47;2.83;;;1.00;;
34296;SDS011;20564;42.902;25.336;2023-03-15T02:54:19;2.10;;;0.93;;
34296;SDS011;20564;42.902;25.336;2023-03-15T03:00:37;1.38;;;0.50;;
34296;SDS011;20564;42.902;25.336;2023-03-15T03:03:09;2.55;;;1.05;;
34296;SDS011;20564;42.902;25.336;2023-03-15T03:06:15;3.65;;;0.90;;
34296;SDS011;20564;42.902;25.336;2023-03-15T03:08:44;7.30;;;1.42;;
34296;SDS011;20564;42.902;25.336;2023-03-15T03:11:43;1.80;;;0.52;;
34296;SDS011;20564;42.902;25.336;2023-03-15T03:14:16;4.70;;;1.15;;
34296;SDS011;20564;42.902;25.336;2023-03-15T03:16:58;2.42;;;0.90;;
34296;SDS011;20564;42.902;25.336;2023-03-15T03:19:36;1.25;;;0.57;;
34296;SDS011;20564;42.902;25.336;2023-03-15T03:22:05;5.15;;;1.40;;
34296;SDS011;20564;42.902;25.336;2023-03-15T03:24:35;3.75;;;0.80;;
34296;SDS011;20564;42.902;25.336;2023-03-15T03:27:12;3.92;;;0.57;;
34296;SDS011;20564;42.902;25.336;2023-03-15T03:29:57;3.22;;;0.80;;
34296;SDS011;20564;42.902;25.336;2023-03-15T03:32:50;2.75;;;0.98;;
34296;SDS011;20564;42.902;25.336;2023-03-15T03:35:33;3.65;;;0.80;;
34296;SDS011;20564;42.902;25.336;2023-03-15T03:38:18;6.50;;;1.05;;
34296;SDS011;20564;42.902;25.336;2023-03-15T03:41:35;1.98;;;0.65;;
34296;SDS011;20564;42.902;25.336;2023-03-15T03:44:16;7.13;;;2.67;;
34296;SDS011;20564;42.902;25.336;2023-03-15T03:47:47;4.65;;;1.73;;
34296;SDS011;20564;42.902;25.336;2023-03-15T03:50:11;3.42;;;1.33;;
34296;SDS011;20564;42.902;25.336;2023-03-15T03:52:55;6.40;;;2.00;;
34296;SDS011;20564;42.902;25.336;2023-03-15T03:55:53;7.07;;;2.47;;
34296;SDS011;20564;42.902;25.336;2023-03-15T03:58:52;6.72;;;1.95;;
34296;SDS011;20564;42.902;25.336;2023-03-15T04:02:58;6.68;;;1.35;;
34296;SDS011;20564;42.902;25.336;2023-03-15T04:05:25;4.40;;;0.63;;
34296;SDS011;20564;42.902;25.336;2023-03-15T04:08:02;6.03;;;1.40;;
34296;SDS011;20564;42.902;25.336;2023-03-15T04:10:33;4.05;;;1.30;;
34296;SDS011;20564;42.902;25.336;2023-03-15T04:13:14;4.18;;;1.10;;
34296;SDS011;20564;42.902;25.336;2023-03-15T04:16:04;2.50;;;0.70;;
34296;SDS011;20564;42.902;25.336;2023-03-15T04:18:32;6.65;;;1.88;;
34296;SDS011;20564;42.902;25.336;2023-03-15T04:21:12;3.95;;;1.30;;
34296;SDS011;20564;42.902;25.336;2023-03-15T04:23:53;2.88;;;0.70;;
34296;SDS011;20564;42.902;25.336;2023-03-15T04:26:27;3.42;;;1.30;;
34296;SDS011;20564;42.902;25.336;2023-03-15T04:28:57;3.10;;;1.13;;
34296;SDS011;20564;42.902;25.336;2023-03-15T04:33:53;4.05;;;0.90;;
34296;SDS011;20564;42.902;25.336;2023-03-15T04:36:21;2.08;;;0.80;;
34296;SDS011;20564;42.902;25.336;2023-03-15T04:38:49;3.17;;;0.90;;
34296;SDS011;20564;42.902;25.336;2023-03-15T04:41:17;5.78;;;1.55;;
34296;SDS011;20564;42.902;25.336;2023-03-15T04:43:45;4.32;;;0.90;;
34296;SDS011;20564;42.902;25.336;2023-03-15T04:46:20;1.90;;;0.75;;
34296;SDS011;20564;42.902;25.336;2023-03-15T04:48:51;3.03;;;0.90;;
34296;SDS011;20564;42.902;25.336;2023-03-15T04:51:18;2.50;;;1.42;;
34296;SDS011;20564;42.902;25.336;2023-03-15T04:53:46;2.78;;;0.80;;
34296;SDS011;20564;42.902;25.336;2023-03-15T04:56:13;4.63;;;1.55;;
34296;SDS011;20564;42.902;25.336;2023-03-15T04:58:41;1.35;;;0.50;;
34296;SDS011;20564;42.902;25.336;2023-03-15T05:01:18;4.60;;;1.70;;
34296;SDS011;20564;42.902;25.336;2023-03-15T05:03:46;1.75;;;0.75;;
34296;SDS011;20564;42.902;25.336;2023-03-15T05:06:13;3.33;;;1.00;;
34296;SDS011;20564;42.902;25.336;2023-03-15T05:08:45;2.70;;;0.82;;
34296;SDS011;20564;42.902;25.336;2023-03-15T05:11:13;5.35;;;1.38;;
34296;SDS011;20564;42.902;25.336;2023-03-15T05:13:47;4.18;;;1.48;;
34296;SDS011;20564;42.902;25.336;2023-03-15T05:16:15;4.25;;;1.35;;
34296;SDS011;20564;42.902;25.336;2023-03-15T05:18:50;4.95;;;1.40;;
34296;SDS011;20564;42.902;25.336;2023-03-15T05:21:18;6.32;;;1.70;;
34296;SDS011;20564;42.902;25.336;2023-03-15T05:23:48;3.42;;;1.20;;
34296;SDS011;20564;42.902;25.336;2023-03-15T05:26:45;4.78;;;1.30;;
34296;SDS011;20564;42.902;25.336;2023-03-15T05:29:14;5.78;;;2.28;;
34296;SDS011;20564;42.902;25.336;2023-03-15T05:31:41;8.70;;;3.13;;
34296;SDS011;20564;42.902;25.336;2023-03-15T05:34:11;8.67;;;1.83;;
34296;SDS011;20564;42.902;25.336;2023-03-15T05:37:01;6.30;;;1.67;;
34296;SDS011;20564;42.902;25.336;2023-03-15T05:39:42;4.78;;;1.58;;
34296;SDS011;20564;42.902;25.336;2023-03-15T05:42:14;16.02;;;3.38;;
34296;SDS011;20564;42.902;25.336;2023-03-15T05:45:26;3.10;;;1.30;;
34296;SDS011;20564;42.902;25.336;2023-03-15T05:47:50;4.78;;;1.50;;
34296;SDS011;20564;42.902;25.336;2023-03-15T05:50:20;5.18;;;2.05;;
34296;SDS011;20564;42.902;25.336;2023-03-15T05:56:18;3.45;;;1.55;;
34296;SDS011;20564;42.902;25.336;2023-03-15T05:58:52;5.47;;;2.05;;
34296;SDS011;20564;42.902;25.336;2023-03-15T06:01:22;3.75;;;1.65;;
34296;SDS011;20564;42.902;25.336;2023-03-15T06:04:27;3.30;;;1.20;;
34296;SDS011;20564;42.902;25.336;2023-03-15T06:07:17;4.80;;;1.92;;
34296;SDS011;20564;42.902;25.336;2023-03-15T06:09:50;6.57;;;2.92;;
34296;SDS011;20564;42.902;25.336;2023-03-15T06:12:34;6.88;;;2.08;;
34296;SDS011;20564;42.902;25.336;2023-03-15T06:15:10;9.85;;;3.25;;
34296;SDS011;20564;42.902;25.336;2023-03-15T06:17:40;6.85;;;2.60;;
34296;SDS011;20564;42.902;25.336;2023-03-15T06:20:10;9.95;;;3.10;;
34296;SDS011;20564;42.902;25.336;2023-03-15T06:22:48;5.20;;;2.60;;
34296;SDS011;20564;42.902;25.336;2023-03-15T06:25:19;9.73;;;3.20;;
34296;SDS011;20564;42.902;25.336;2023-03-15T06:27:49;6.07;;;2.63;;
34296;SDS011;20564;42.902;25.336;2023-03-15T06:33:27;4.05;;;2.20;;
34296;SDS011;20564;42.902;25.336;2023-03-15T06:40:16;3.10;;;1.15;;
34296;SDS011;20564;42.902;25.336;2023-03-15T06:42:44;1.15;;;0.68;;
34296;SDS011;20564;42.902;25.336;2023-03-15T06:45:12;4.95;;;1.25;;
34296;SDS011;20564;42.902;25.336;2023-03-15T06:47:40;2.22;;;1.00;;
34296;SDS011;20564;42.902;25.336;2023-03-15T06:50:22;6.97;;;1.48;;
34296;SDS011;20564;42.902;25.336;2023-03-15T06:59:09;12.07;;;3.33;;
34296;SDS011;20564;42.902;25.336;2023-03-15T07:01:40;8.07;;;2.25;;
34296;SDS011;20564;42.902;25.336;2023-03-15T07:04:09;10.10;;;2.70;;
34296;SDS011;20564;42.902;25.336;2023-03-15T07:06:36;14.18;;;3.33;;
34296;SDS011;20564;42.902;25.336;2023-03-15T07:11:48;6.65;;;3.17;;
34296;SDS011;20564;42.902;25.336;2023-03-15T07:14:25;6.40;;;2.15;;
34296;SDS011;20564;42.902;25.336;2023-03-15T07:16:56;4.32;;;1.17;;
34296;SDS011;20564;42.902;25.336;2023-03-15T07:22:03;2.50;;;0.93;;
34296;SDS011;20564;42.902;25.336;2023-03-15T07:24:31;4.07;;;1.63;;
34296;SDS011;20564;42.902;25.336;2023-03-15T07:27:01;3.30;;;1.45;;
34296;SDS011;20564;42.902;25.336;2023-03-15T07:29:30;6.68;;;2.40;;
34296;SDS011;20564;42.902;25.336;2023-03-15T07:32:20;6.32;;;1.77;;
34296;SDS011;20564;42.902;25.336;2023-03-15T07:35:00;4.40;;;0.93;;
34296;SDS011;20564;42.902;25.336;2023-03-15T07:37:49;7.68;;;1.70;;
34296;SDS011;20564;42.902;25.336;2023-03-15T07:40:26;4.03;;;1.30;;
34296;SDS011;20564;42.902;25.336;2023-03-15T07:43:01;2.20;;;1.17;;
34296;SDS011;20564;42.902;25.336;2023-03-15T07:45:31;4.40;;;1.30;;
34296;SDS011;20564;42.902;25.336;2023-03-15T07:48:13;4.40;;;2.35;;
34296;SDS011;20564;42.902;25.336;2023-03-15T07:50:42;4.15;;;1.92;;
34296;SDS011;20564;42.902;25.336;2023-03-15T07:53:11;3.22;;;1.25;;
34296;SDS011;20564;42.902;25.336;2023-03-15T07:55:45;3.15;;;1.00;;
34296;SDS011;20564;42.902;25.336;2023-03-15T07:58:17;2.08;;;0.70;;
34296;SDS011;20564;42.902;25.336;2023-03-15T08:00:48;1.80;;;1.00;;
34296;SDS011;20564;42.902;25.336;2023-03-15T08:03:26;3.60;;;1.30;;
34296;SDS011;20564;42.902;25.336;2023-03-15T08:05:53;3.13;;;1.77;;
34296;SDS011;20564;42.902;25.336;2023-03-15T08:08:23;5.97;;;1.88;;
34296;SDS011;20564;42.902;25.336;2023-03-15T08:10:56;3.72;;;1.30;;
34296;SDS011;20564;42.902;25.336;2023-03-15T08:13:29;2.40;;;1.00;;
34296;SDS011;20564;42.902;25.336;2023-03-15T08:19:07;5.45;;;1.23;;
34296;SDS011;20564;42.902;25.336;2023-03-15T08:21:40;5.00;;;1.52;;
34296;SDS011;20564;42.902;25.336;2023-03-15T08:24:11;3.50;;;1.40;;
34296;SDS011;20564;42.902;25.336;2023-03-15T08:26:38;3.35;;;1.10;;
34296;SDS011;20564;42.902;25.336;2023-03-15T08:29:09;3.53;;;0.90;;
34296;SDS011;20564;42.902;25.336;2023-03-15T08:31:42;2.13;;;0.80;;
34296;SDS011;20564;42.902;25.336;2023-03-15T08:34:10;3.67;;;1.58;;
34296;SDS011;20564;42.902;25.336;2023-03-15T08:36:38;5.43;;;1.27;;
34296;SDS011;20564;42.902;25.336;2023-03-15T08:39:10;5.55;;;1.33;;
34296;SDS011;20564;42.902;25.336;2023-03-15T08:41:39;3.47;;;1.60;;
34296;SDS011;20564;42.902;25.336;2023-03-15T08:44:10;2.90;;;1.20;;
34296;SDS011;20564;42.902;25.336;2023-03-15T08:46:51;6.03;;;1.70;;
34296;SDS011;20564;42.902;25.336;2023-03-15T08:49:19;4.30;;;1.55;;
34296;SDS011;20564;42.902;25.336;2023-03-15T08:51:46;3.80;;;1.85;;
34296;SDS011;20564;42.902;25.336;2023-03-15T08:54:14;5.97;;;2.42;;
34296;SDS011;20564;42.902;25.336;2023-03-15T08:56:52;6.18;;;2.42;;
34296;SDS011;20564;42.902;25.336;2023-03-15T08:59:20;9.38;;;2.30;;
34296;SDS011;20564;42.902;25.336;2023-03-15T09:01:58;3.47;;;1.23;;
34296;SDS011;20564;42.902;25.336;2023-03-15T09:04:32;2.78;;;1.02;;
34296;SDS011;20564;42.902;25.336;2023-03-15T09:07:09;2.00;;;1.02;;
34296;SDS011;20564;42.902;25.336;2023-03-15T09:09:42;2.45;;;0.88;;
34296;SDS011;20564;42.902;25.336;2023-03-15T09:12:17;2.28;;;1.00;;
34296;SDS011;20564;42.902;25.336;2023-03-15T09:14:48;4.80;;;0.98;;
34296;SDS011;20564;42.902;25.336;2023-03-15T09:17:18;3.00;;;0.95;;
34296;SDS011;20564;42.902;25.336;2023-03-15T09:19:46;1.65;;;0.63;;
34296;SDS011;20564;42.902;25.336;2023-03-15T09:22:17;2.20;;;0.82;;
34296;SDS011;20564;42.902;25.336;2023-03-15T09:25:03;2.80;;;1.00;;
34296;SDS011;20564;42.902;25.336;2023-03-15T09:27:34;2.45;;;0.90;;
34296;SDS011;20564;42.902;25.336;2023-03-15T09:30:02;2.58;;;0.98;;
34296;SDS011;20564;42.902;25.336;2023-03-15T09:32:33;2.38;;;0.75;;
34296;SDS011;20564;42.902;25.336;2023-03-15T09:35:02;3.20;;;1.50;;
34296;SDS011;20564;42.902;25.336;2023-03-15T09:37:34;2.47;;;0.95;;
34296;SDS011;20564;42.902;25.336;2023-03-15T09:40:03;2.05;;;0.90;;
34296;SDS011;20564;42.902;25.336;2023-03-15T09:45:41;2.53;;;1.13;;
34296;SDS011;20564;42.902;25.336;2023-03-15T09:48:31;2.55;;;0.85;;
34296;SDS011;20564;42.902;25.336;2023-03-15T09:59:26;1.63;;;0.70;;
34296;SDS011;20564;42.902;25.336;2023-03-15T10:02:18;3.22;;;0.80;;
34296;SDS011;20564;42.902;25.336;2023-03-15T10:04:48;4.25;;;1.55;;
34296;SDS011;20564;42.902;25.336;2023-03-15T10:07:24;9.93;;;1.75;;
34296;SDS011;20564;42.902;25.336;2023-03-15T10:09:55;11.98;;;2.85;;
34296;SDS011;20564;42.902;25.336;2023-03-15T10:12:33;8.65;;;2.17;;
34296;SDS011;20564;42.902;25.336;2023-03-15T10:16:10;3.88;;;1.83;;
34296;SDS011;20564;42.902;25.336;2023-03-15T10:22:03;3.50;;;1.38;;
34296;SDS011;20564;42.902;25.336;2023-03-15T10:25:35;2.67;;;1.33;;
34296;SDS011;20564;42.902;25.336;2023-03-15T10:28:07;2.15;;;1.05;;
34296;SDS011;20564;42.902;25.336;2023-03-15T10:30:49;4.22;;;1.13;;
34296;SDS011;20564;42.902;25.336;2023-03-15T10:36:02;2.03;;;1.15;;
34296;SDS011;20564;42.902;25.336;2023-03-15T10:38:42;1.85;;;0.80;;
34296;SDS011;20564;42.902;25.336;2023-03-15T10:41:12;2.97;;;1.05;;
34296;SDS011;20564;42.902;25.336;2023-03-15T10:43:59;2.17;;;0.93;;
34296;SDS011;20564;42.902;25.336;2023-03-15T10:46:33;2.55;;;1.08;;
34296;SDS011;20564;42.902;25.336;2023-03-15T10:49:48;5.13;;;2.10;;
34296;SDS011;20564;42.902;25.336;2023-03-15T10:55:46;3.65;;;1.15;;
34296;SDS011;20564;42.902;25.336;2023-03-15T10:58:00;3.47;;;1.48;;
34296;SDS011;20564;42.902;25.336;2023-03-15T11:00:51;4.25;;;1.65;;
34296;SDS011;20564;42.902;25.336;2023-03-15T11:03:27;5.28;;;1.75;;
34296;SDS011;20564;42.902;25.336;2023-03-15T11:06:21;9.98;;;3.60;;
34296;SDS011;20564;42.902;25.336;2023-03-15T11:08:53;6.05;;;2.20;;
34296;SDS011;20564;42.902;25.336;2023-03-15T11:14:38;4.78;;;2.35;;
34296;SDS011;20564;42.902;25.336;2023-03-15T11:17:25;6.15;;;1.88;;
34296;SDS011;20564;42.902;25.336;2023-03-15T11:20:02;8.73;;;2.60;;
34296;SDS011;20564;42.902;25.336;2023-03-15T11:22:51;8.52;;;2.90;;
34296;SDS011;20564;42.902;25.336;2023-03-15T11:25:21;5.15;;;1.77;;
34296;SDS011;20564;42.902;25.336;2023-03-15T11:27:59;2.75;;;1.25;;
34296;SDS011;20564;42.902;25.336;2023-03-15T11:30:33;4.85;;;1.40;;
34296;SDS011;20564;42.902;25.336;2023-03-15T11:33:07;5.95;;;1.92;;
34296;SDS011;20564;42.902;25.336;2023-03-15T11:35:42;3.60;;;1.70;;
34296;SDS011;20564;42.902;25.336;2023-03-15T11:38:17;4.97;;;1.90;;
34296;SDS011;20564;42.902;25.336;2023-03-15T11:41:32;6.72;;;2.50;;
34296;SDS011;20564;42.902;25.336;2023-03-15T11:46:36;3.47;;;1.65;;
34296;SDS011;20564;42.902;25.336;2023-03-15T11:49:21;3.35;;;1.67;;
34296;SDS011;20564;42.902;25.336;2023-03-15T11:52:00;2.47;;;1.10;;
34296;SDS011;20564;42.902;25.336;2023-03-15T11:54:30;5.95;;;1.77;;
34296;SDS011;20564;42.902;25.336;2023-03-15T11:57:05;3.90;;;1.45;;
34296;SDS011;20564;42.902;25.336;2023-03-15T12:06:56;4.88;;;1.63;;
34296;SDS011;20564;42.902;25.336;2023-03-15T12:12:33;2.25;;;1.23;;
34296;SDS011;20564;42.902;25.336;2023-03-15T12:15:06;3.13;;;1.10;;
34296;SDS011;20564;42.902;25.336;2023-03-15T12:17:50;2.38;;;1.25;;
34296;SDS011;20564;42.902;25.336;2023-03-15T12:20:48;7.28;;;2.63;;
34296;SDS011;20564;42.902;25.336;2023-03-15T12:26:31;6.10;;;1.90;;
34296;SDS011;20564;42.902;25.336;2023-03-15T12:29:17;4.68;;;1.85;;
34296;SDS011;20564;42.902;25.336;2023-03-15T12:32:03;4.55;;;1.73;;
34296;SDS011;20564;42.902;25.336;2023-03-15T12:55:58;6.13;;;2.50;;
34296;SDS011;20564;42.902;25.336;2023-03-15T12:58:46;4.53;;;1.83;;
34296;SDS011;20564;42.902;25.336;2023-03-15T13:01:22;2.88;;;1.60;;
34296;SDS011;20564;42.902;25.336;2023-03-15T13:03:56;3.40;;;1.42;;
34296;SDS011;20564;42.902;25.336;2023-03-15T13:06:34;5.03;;;1.92;;
34296;SDS011;20564;42.902;25.336;2023-03-15T13:09:48;5.28;;;2.22;;
34296;SDS011;20564;42.902;25.336;2023-03-15T13:12:27;7.40;;;2.60;;
34296;SDS011;20564;42.902;25.336;2023-03-15T13:17:56;6.75;;;2.22;;
34296;SDS011;20564;42.902;25.336;2023-03-15T13:23:55;2.22;;;1.33;;
34296;SDS011;20564;42.902;25.336;2023-03-15T13:26:30;4.43;;;1.75;;
34296;SDS011;20564;42.902;25.336;2023-03-15T13:29:03;5.15;;;1.30;;
34296;SDS011;20564;42.902;25.336;2023-03-15T13:31:40;3.42;;;1.77;;
34296;SDS011;20564;42.902;25.336;2023-03-15T13:34:15;3.53;;;1.65;;
34296;SDS011;20564;42.902;25.336;2023-03-15T13:36:59;6.25;;;2.80;;
34296;SDS011;20564;42.902;25.336;2023-03-15T13:40:00;5.72;;;2.50;;
34296;SDS011;20564;42.902;25.336;2023-03-15T13:42:37;2.83;;;1.70;;
34296;SDS011;20564;42.902;25.336;2023-03-15T13:45:14;4.15;;;1.33;;
34296;SDS011;20564;42.902;25.336;2023-03-15T13:47:44;3.72;;;1.63;;
34296;SDS011;20564;42.902;25.336;2023-03-15T13:50:13;3.90;;;1.50;;
34296;SDS011;20564;42.902;25.336;2023-03-15T13:52:48;5.30;;;2.17;;
34296;SDS011;20564;42.902;25.336;2023-03-15T13:55:20;7.18;;;3.05;;
34296;SDS011;20564;42.902;25.336;2023-03-15T13:57:56;6.90;;;2.95;;
34296;SDS011;20564;42.902;25.336;2023-03-15T14:00:28;9.70;;;3.70;;
34296;SDS011;20564;42.902;25.336;2023-03-15T14:03:04;6.10;;;2.55;;
34296;SDS011;20564;42.902;25.336;2023-03-15T14:05:44;6.72;;;2.17;;
34296;SDS011;20564;42.902;25.336;2023-03-15T14:16:46;4.03;;;1.13;;
34296;SDS011;20564;42.902;25.336;2023-03-15T14:19:31;3.13;;;1.35;;
34296;SDS011;20564;42.902;25.336;2023-03-15T14:22:10;3.85;;;1.70;;
34296;SDS011;20564;42.902;25.336;2023-03-15T14:24:48;5.32;;;1.67;;
34296;SDS011;20564;42.902;25.336;2023-03-15T14:27:21;3.53;;;1.50;;
34296;SDS011;20564;42.902;25.336;2023-03-15T14:29:57;2.78;;;1.17;;
34296;SDS011;20564;42.902;25.336;2023-03-15T14:32:31;3.72;;;1.40;;
34296;SDS011;20564;42.902;25.336;2023-03-15T14:35:02;4.35;;;1.50;;
34296;SDS011;20564;42.902;25.336;2023-03-15T14:38:00;3.22;;;1.52;;
34296;SDS011;20564;42.902;25.336;2023-03-15T14:40:32;4.30;;;1.70;;
34296;SDS011;20564;42.902;25.336;2023-03-15T14:43:08;4.70;;;1.45;;
34296;SDS011;20564;42.902;25.336;2023-03-15T14:45:46;4.90;;;1.60;;
34296;SDS011;20564;42.902;25.336;2023-03-15T14:48:22;5.25;;;2.08;;
34296;SDS011;20564;42.902;25.336;2023-03-15T14:50:55;6.25;;;1.65;;
34296;SDS011;20564;42.902;25.336;2023-03-15T14:53:23;4.97;;;1.40;;
34296;SDS011;20564;42.902;25.336;2023-03-15T14:55:56;6.30;;;1.63;;
34296;SDS011;20564;42.902;25.336;2023-03-15T15:00:54;7.50;;;2.85;;
34296;SDS011;20564;42.902;25.336;2023-03-15T15:03:38;5.47;;;1.90;;
34296;SDS011;20564;42.902;25.336;2023-03-15T15:06:15;5.50;;;1.80;;
34296;SDS011;20564;42.902;25.336;2023-03-15T15:08:44;10.18;;;2.67;;
34296;SDS011;20564;42.902;25.336;2023-03-15T15:11:16;6.90;;;2.60;;
34296;SDS011;20564;42.902;25.336;2023-03-15T15:13:44;7.22;;;2.92;;
34296;SDS011;20564;42.902;25.336;2023-03-15T15:16:13;4.85;;;1.88;;
34296;SDS011;20564;42.902;25.336;2023-03-15T15:18:47;4.55;;;1.67;;
34296;SDS011;20564;42.902;25.336;2023-03-15T15:21:20;3.97;;;1.92;;
34296;SDS011;20564;42.902;25.336;2023-03-15T15:23:52;3.53;;;1.38;;
34296;SDS011;20564;42.902;25.336;2023-03-15T15:26:26;4.78;;;1.73;;
34296;SDS011;20564;42.902;25.336;2023-03-15T15:28:55;4.05;;;1.98;;
34296;SDS011;20564;42.902;25.336;2023-03-15T15:31:27;2.78;;;1.33;;
34296;SDS011;20564;42.902;25.336;2023-03-15T15:33:58;4.93;;;1.80;;
34296;SDS011;20564;42.902;25.336;2023-03-15T15:36:27;4.57;;;1.58;;
34296;SDS011;20564;42.902;25.336;2023-03-15T15:39:25;3.50;;;1.40;;
34296;SDS011;20564;42.902;25.336;2023-03-15T15:41:55;5.88;;;1.73;;
34296;SDS011;20564;42.902;25.336;2023-03-15T15:44:26;5.60;;;1.85;;
34296;SDS011;20564;42.902;25.336;2023-03-15T15:46:59;5.72;;;1.33;;
34296;SDS011;20564;42.902;25.336;2023-03-15T15:49:27;4.10;;;1.83;;
34296;SDS011;20564;42.902;25.336;2023-03-15T15:51:55;4.00;;;1.48;;
34296;SDS011;20564;42.902;25.336;2023-03-15T15:54:24;7.78;;;1.55;;
34296;SDS011;20564;42.902;25.336;2023-03-15T15:56:57;5.05;;;1.58;;
34296;SDS011;20564;42.902;25.336;2023-03-15T15:59:43;5.47;;;2.15;;
34296;SDS011;20564;42.902;25.336;2023-03-15T16:02:28;4.63;;;1.55;;
34296;SDS011;20564;42.902;25.336;2023-03-15T16:05:06;6.22;;;2.25;;
34296;SDS011;20564;42.902;25.336;2023-03-15T16:07:47;22.92;;;6.07;;
34296;SDS011;20564;42.902;25.336;2023-03-15T16:10:23;8.82;;;2.85;;
34296;SDS011;20564;42.902;25.336;2023-03-15T16:12:56;5.95;;;2.25;;
34296;SDS011;20564;42.902;25.336;2023-03-15T16:15:31;3.58;;;1.20;;
34296;SDS011;20564;42.902;25.336;2023-03-15T16:18:00;3.38;;;1.20;;
34296;SDS011;20564;42.902;25.336;2023-03-15T16:20:54;5.32;;;1.67;;
34296;SDS011;20564;42.902;25.336;2023-03-15T16:23:26;3.75;;;1.83;;
34296;SDS011;20564;42.902;25.336;2023-03-15T16:25:55;4.18;;;2.05;;
34296;SDS011;20564;42.902;25.336;2023-03-15T16:28:28;5.55;;;1.95;;
34296;SDS011;20564;42.902;25.336;2023-03-15T16:31:19;5.82;;;2.05;;
34296;SDS011;20564;42.902;25.336;2023-03-15T16:34:12;4.85;;;2.00;;
34296;SDS011;20564;42.902;25.336;2023-03-15T16:50:16;7.50;;;2.55;;
34296;SDS011;20564;42.902;25.336;2023-03-15T16:52:51;6.55;;;2.38;;
34296;SDS011;20564;42.902;25.336;2023-03-15T16:55:27;8.25;;;2.72;;
34296;SDS011;20564;42.902;25.336;2023-03-15T17:00:35;5.78;;;2.00;;
34296;SDS011;20564;42.902;25.336;2023-03-15T17:03:10;6.05;;;2.00;;
34296;SDS011;20564;42.902;25.336;2023-03-15T17:05:38;5.63;;;1.80;;
34296;SDS011;20564;42.902;25.336;2023-03-15T17:08:12;5.18;;;2.03;;
34296;SDS011;20564;42.902;25.336;2023-03-15T17:10:50;6.28;;;1.75;;
34296;SDS011;20564;42.902;25.336;2023-03-15T17:13:21;3.40;;;1.40;;
34296;SDS011;20564;42.902;25.336;2023-03-15T17:16:11;4.60;;;1.60;;
34296;SDS011;20564;42.902;25.336;2023-03-15T17:19:03;3.58;;;1.02;;
34296;SDS011;20564;42.902;25.336;2023-03-15T17:21:35;6.40;;;2.58;;
34296;SDS011;20564;42.902;25.336;2023-03-15T17:24:03;4.68;;;2.08;;
34296;SDS011;20564;42.902;25.336;2023-03-15T17:26:39;5.72;;;1.90;;
34296;SDS011;20564;42.902;25.336;2023-03-15T17:29:09;4.55;;;1.92;;
34296;SDS011;20564;42.902;25.336;2023-03-15T17:32:08;5.78;;;2.60;;
34296;SDS011;20564;42.902;25.336;2023-03-15T17:34:40;5.88;;;2.25;;
34296;SDS011;20564;42.902;25.336;2023-03-15T17:37:15;3.80;;;1.98;;
34296;SDS011;20564;42.902;25.336;2023-03-15T17:46:01;8.02;;;3.28;;
34296;SDS011;20564;42.902;25.336;2023-03-15T17:49:10;7.13;;;2.97;;
34296;SDS011;20564;42.902;25.336;2023-03-15T17:51:43;6.32;;;2.65;;
34296;SDS011;20564;42.902;25.336;2023-03-15T17:54:22;6.78;;;2.67;;
34296;SDS011;20564;42.902;25.336;2023-03-15T17:56:51;6.03;;;2.47;;
34296;SDS011;20564;42.902;25.336;2023-03-15T17:59:29;5.65;;;2.83;;
34296;SDS011;20564;42.902;25.336;2023-03-15T18:02:07;8.02;;;2.95;;
34296;SDS011;20564;42.902;25.336;2023-03-15T18:04:45;10.52;;;3.55;;
34296;SDS011;20564;42.902;25.336;2023-03-15T18:07:21;11.23;;;5.07;;
34296;SDS011;20564;42.902;25.336;2023-03-15T18:10:28;8.98;;;3.78;;
34296;SDS011;20564;42.902;25.336;2023-03-15T18:13:18;8.23;;;2.83;;
34296;SDS011;20564;42.902;25.336;2023-03-15T18:16:05;5.50;;;2.10;;
34296;SDS011;20564;42.902;25.336;2023-03-15T18:18:42;6.65;;;2.40;;
34296;SDS011;20564;42.902;25.336;2023-03-15T18:21:19;7.05;;;2.78;;
34296;SDS011;20564;42.902;25.336;2023-03-15T18:23:55;5.18;;;2.70;;